Time;durP1;ratioP1;P1;durP2;ratioP2;P2;SDS_P1;SDS_P2;PMS_P1;PMS_P2;Temp;Humidity;BMP_temperature;BMP_pressure;BME280_temperature;BME280_humidity;BME280_pressure;Samples;Min_cycle;Max_cycle;Signal;HPM_P1;HPM_P2
2021/11/13 00:02:20;;;;;;;;;23.75;22.75;;;;;13.22;68.93;101096.91;5102624;27;45321;-63
2021/11/13 00:04:45;;;;;;;;;23.75;21.00;;;;;13.13;68.77;101076.72;5102687;27;45470;-63
2021/11/13 00:07:11;;;;;;;;;25.50;22.50;;;;;13.22;68.76;101074.59;5103053;27;45482;-63
2021/11/13 00:09:36;;;;;;;;;26.75;21.00;;;;;13.24;69.21;101070.06;5102604;27;45536;-63
2021/11/13 00:12:02;;;;;;;;;21.50;19.50;;;;;13.21;68.88;101071.03;5101839;27;45942;-63
2021/11/13 00:14:29;;;;;;;;;21.00;19.75;;;;;13.21;68.95;101065.66;5102568;27;47391;-63
2021/11/13 00:16:55;;;;;;;;;24.75;22.25;;;;;13.21;69.18;101081.75;5102409;27;45435;-63
2021/11/13 00:19:20;;;;;;;;;26.25;21.50;;;;;13.19;69.02;101064.00;5102619;27;45159;-63
2021/11/13 00:21:46;;;;;;;;;28.00;24.00;;;;;13.22;69.24;101069.25;5102681;27;45284;-63
2021/11/13 00:24:12;;;;;;;;;21.75;20.25;;;;;13.20;69.38;101063.94;5102112;27;45233;-63
2021/11/13 00:26:38;;;;;;;;;25.00;24.75;;;;;13.23;69.00;101071.88;5102350;27;45540;-62
2021/11/13 00:29:04;;;;;;;;;25.25;21.75;;;;;13.23;69.17;101065.63;5102452;27;45289;-63
2021/11/13 00:31:29;;;;;;;;;26.50;23.75;;;;;13.25;69.35;101072.69;5102371;27;45393;-63
2021/11/13 00:33:55;;;;;;;;;18.75;18.75;;;;;13.26;69.52;101063.69;5102011;27;46169;-62
2021/11/13 00:36:20;;;;;;;;;24.50;19.75;;;;;13.26;69.25;101066.38;5102341;27;45327;-63
2021/11/13 00:38:45;;;;;;;;;22.25;21.00;;;;;13.28;69.21;101069.00;5102429;27;45304;-63
2021/11/13 00:41:11;;;;;;;;;24.00;19.00;;;;;13.28;69.43;101061.84;5101667;27;45404;-63
2021/11/13 00:43:36;;;;;;;;;30.50;27.00;;;;;13.31;69.11;101060.84;5101918;27;46329;-63
2021/11/13 00:46:02;;;;;;;;;28.00;21.25;;;;;13.29;69.19;101060.91;5102267;27;45343;-63
2021/11/13 00:48:27;;;;;;;;;22.25;22.25;;;;;13.33;68.94;101067.03;5099794;27;45400;-63
2021/11/13 00:50:52;;;;;;;;;22.25;21.00;;;;;13.33;69.05;101067.94;5102079;27;45300;-63
2021/11/13 00:53:19;;;;;;;;;23.75;21.25;;;;;13.30;69.05;101059.09;5101651;27;45982;-62
2021/11/13 00:55:44;;;;;;;;;21.25;19.25;;;;;13.33;69.30;101061.69;5102093;27;45361;-62
2021/11/13 00:58:10;;;;;;;;;21.25;19.00;;;;;13.32;69.12;101057.28;5102125;27;45252;-63
2021/11/13 01:00:36;;;;;;;;;24.50;23.00;;;;;13.31;69.35;101067.09;5102005;27;45227;-63
2021/11/13 01:03:01;;;;;;;;;27.00;23.75;;;;;13.29;69.21;101071.63;5101494;27;45254;-63
2021/11/13 01:05:27;;;;;;;;;26.50;21.00;;;;;13.27;69.35;101065.44;5101989;27;45289;-63
2021/11/13 01:07:53;;;;;;;;;25.25;21.00;;;;;13.31;69.25;101069.78;5101914;27;45252;-63
2021/11/13 01:10:19;;;;;;;;;28.00;22.00;;;;;13.31;69.25;101068.88;5101635;27;45314;-62
2021/11/13 01:12:46;;;;;;;;;23.75;21.75;;;;;13.31;69.39;101068.88;5096590;27;47163;-62
2021/11/13 01:15:14;;;;;;;;;28.25;24.50;;;;;13.33;69.26;101061.69;5101727;27;45655;-63
2021/11/13 01:17:40;;;;;;;;;16.50;14.00;;;;;13.36;69.42;101060.69;5101614;27;45185;-62
2021/11/13 01:20:08;;;;;;;;;25.50;21.75;;;;;13.35;69.34;101057.16;5101609;27;45476;-63
2021/11/13 01:22:34;;;;;;;;;24.00;21.50;;;;;13.32;69.09;101054.59;5101084;27;46741;-63
2021/11/13 01:24:59;;;;;;;;;22.25;21.00;;;;;13.37;69.22;101068.69;5098980;27;45478;-63
2021/11/13 01:27:25;;;;;;;;;28.75;23.25;;;;;13.35;69.12;101059.84;5101515;27;45398;-62
2021/11/13 01:29:50;;;;;;;;;28.50;22.25;;;;;13.36;69.19;101052.66;5101463;27;45326;-62
2021/11/13 01:32:16;;;;;;;;;22.00;21.50;;;;;13.37;69.24;101059.78;5100921;27;45801;-62
2021/11/13 01:34:42;;;;;;;;;24.75;22.25;;;;;13.38;69.29;101064.19;5100508;27;45381;-62
2021/11/13 01:37:08;;;;;;;;;26.25;20.75;;;;;13.37;69.29;101071.38;5101320;27;45371;-62
2021/11/13 01:39:33;;;;;;;;;19.25;18.50;;;;;13.38;69.31;101066.88;5101270;27;45451;-62
2021/11/13 01:41:59;;;;;;;;;21.75;20.50;;;;;13.36;69.28;101061.56;5100786;27;45353;-63
2021/11/13 01:44:25;;;;;;;;;30.25;23.00;;;;;13.30;69.30;101051.06;5101044;27;45304;-62
2021/11/13 01:46:51;;;;;;;;;24.00;20.00;;;;;13.41;69.38;101072.13;5101260;27;45494;-62
2021/11/13 01:49:16;;;;;;;;;21.50;20.50;;;;;13.41;69.24;101064.94;5098742;27;45259;-64
2021/11/13 01:51:45;;;;;;;;;26.00;23.75;;;;;13.38;69.33;101054.34;5100913;27;46164;-62
2021/11/13 01:54:10;;;;;;;;;23.00;19.75;;;;;13.39;69.37;101053.41;5100896;27;45633;-62
2021/11/13 01:56:39;;;;;;;;;23.00;20.25;;;;;13.42;69.59;101053.28;5100808;27;45447;-63
2021/11/13 01:59:05;;;;;;;;;23.50;20.50;;;;;13.42;69.67;101058.66;5101055;27;45324;-62
2021/11/13 02:01:31;;;;;;;;;23.50;20.00;;;;;13.42;69.49;101053.28;5100825;27;46368;-63
2021/11/13 02:03:57;;;;;;;;;25.00;21.50;;;;;13.36;69.76;101048.16;5100232;27;45495;-62
2021/11/13 02:06:23;;;;;;;;;27.00;22.00;;;;;13.38;69.87;101043.63;5100909;27;45336;-63
2021/11/13 02:08:49;;;;;;;;;21.75;20.75;;;;;13.34;69.79;101044.66;5101045;27;45308;-62
2021/11/13 02:11:17;;;;;;;;;27.75;22.00;;;;;13.37;70.22;101041.88;5100329;27;45668;-62
2021/11/13 02:13:43;;;;;;;;;26.50;21.75;;;;;13.36;69.94;101049.97;5100575;27;45569;-62
2021/11/13 02:16:09;;;;;;;;;20.75;19.50;;;;;13.37;69.75;101051.72;5100641;27;45304;-62
2021/11/13 02:18:39;;;;;;;;;24.00;21.00;;;;;13.40;69.79;101051.59;5100928;27;45295;-63
2021/11/13 02:21:05;;;;;;;;;20.50;20.50;;;;;13.40;69.71;101048.91;5100378;27;46046;-62
2021/11/13 02:23:31;;;;;;;;;23.50;22.00;;;;;13.40;69.79;101052.47;5100455;27;45226;-62
2021/11/13 02:25:57;;;;;;;;;24.75;22.75;;;;;13.41;69.74;101046.16;5098734;27;45289;-63
2021/11/13 02:28:25;;;;;;;;;25.75;22.00;;;;;13.41;69.47;101037.25;5100616;27;45336;-63
2021/11/13 02:30:52;;;;;;;;;22.25;18.75;;;;;13.41;69.85;101043.47;5100301;27;45442;-62
2021/11/13 02:33:18;;;;;;;;;24.00;21.00;;;;;13.39;70.19;101039.13;5100162;27;45571;-63
2021/11/13 02:35:45;;;;;;;;;24.75;21.25;;;;;13.34;70.09;101042.84;5100352;27;45395;-62
2021/11/13 02:38:18;;;;;;;;;21.25;19.00;;;;;13.39;70.18;101048.03;5099563;27;45365;-62
2021/11/13 02:40:51;;;;;;;;;21.50;19.25;;;;;13.41;69.94;101054.22;5091042;27;46511;-63
2021/11/13 02:43:17;;;;;;;;;21.50;21.25;;;;;13.41;69.84;101048.84;5100267;27;45600;-63
2021/11/13 02:45:44;;;;;;;;;22.00;20.75;;;;;13.39;70.06;101034.63;5100527;27;45280;-62
2021/11/13 02:48:11;;;;;;;;;29.75;23.75;;;;;13.41;69.58;101037.25;5098153;27;45336;-62
2021/11/13 02:50:38;;;;;;;;;22.50;22.00;;;;;13.42;69.68;101039.03;5097582;27;45486;-62
2021/11/13 02:53:10;;;;;;;;;22.50;22.50;;;;;13.39;69.85;101031.94;5093629;27;45674;-63
2021/11/13 02:55:35;;;;;;;;;17.50;16.25;;;;;13.41;69.87;101034.56;5100242;27;45520;-62
2021/11/13 02:58:00;;;;;;;;;22.75;18.50;;;;;13.42;69.84;101044.38;5100082;27;45556;-63
2021/11/13 03:00:28;;;;;;;;;18.75;16.75;;;;;13.41;69.80;101026.53;5100177;27;46079;-62
2021/11/13 03:02:55;;;;;;;;;24.00;20.75;;;;;13.43;70.04;101025.56;5099739;27;45424;-62
2021/11/13 03:05:25;;;;;;;;;19.00;16.25;;;;;13.42;69.86;101023.78;5100402;27;45308;-62
2021/11/13 03:07:56;;;;;;;;;20.50;17.75;;;;;13.42;69.83;101034.53;5099982;27;45355;-62
2021/11/13 03:10:24;;;;;;;;;20.25;19.00;;;;;13.40;69.94;101031.03;5098446;27;45478;-62
2021/11/13 03:12:51;;;;;;;;;20.00;18.00;;;;;13.45;69.87;101028.19;5099430;27;45431;-63
2021/11/13 03:15:19;;;;;;;;;22.75;18.25;;;;;13.43;69.91;101030.03;5100104;27;45602;-63
2021/11/13 03:17:47;;;;;;;;;20.50;17.00;;;;;13.45;69.83;101030.84;5099841;27;45488;-63
2021/11/13 03:20:16;;;;;;;;;22.25;20.75;;;;;13.43;70.09;101019.28;5099741;27;46801;-62
2021/11/13 03:22:42;;;;;;;;;18.75;17.50;;;;;13.39;69.90;101026.59;5099516;27;45393;-62
2021/11/13 03:25:20;;;;;;;;;17.25;16.25;;;;;13.40;69.97;101024.78;5099771;27;45335;-62
2021/11/13 03:27:50;;;;;;;;;17.50;15.25;;;;;13.40;69.68;101022.97;5099940;27;45308;-62
2021/11/13 03:30:16;;;;;;;;;16.00;14.00;;;;;13.39;69.69;101017.69;5099630;27;45427;-62
2021/11/13 03:32:42;;;;;;;;;17.25;14.00;;;;;13.43;69.86;101021.97;5097845;27;45794;-63
2021/11/13 03:35:08;;;;;;;;;17.00;15.75;;;;;13.43;70.24;101028.22;5099894;27;45365;-63
2021/11/13 03:37:34;;;;;;;;;15.75;14.25;;;;;13.34;69.79;101021.41;5098534;27;45490;-63
2021/11/13 03:40:00;;;;;;;;;15.00;12.25;;;;;13.37;69.98;101022.25;5093855;27;47094;-62
2021/11/13 03:42:29;;;;;;;;;16.25;12.25;;;;;13.41;70.25;101019.34;5098240;27;45441;-62
2021/11/13 03:44:57;;;;;;;;;13.00;10.50;;;;;13.38;70.37;101021.28;5098500;27;45442;-62
2021/11/13 03:47:22;;;;;;;;;14.75;10.50;;;;;13.41;70.23;101022.03;5100707;27;46674;-63
2021/11/13 03:49:47;;;;;;;;;13.00;12.00;;;;;13.44;70.38;101026.41;5100607;27;45450;-62
2021/11/13 03:52:13;;;;;;;;;14.25;11.25;;;;;13.42;70.21;101021.09;5100369;27;45316;-62
2021/11/13 03:54:38;;;;;;;;;14.00;11.75;;;;;13.44;70.16;101027.28;5103197;27;45384;-63
2021/11/13 03:57:05;;;;;;;;;14.25;13.00;;;;;13.45;70.27;101026.34;5101583;27;45509;-63
2021/11/13 03:59:30;;;;;;;;;9.25;9.25;;;;;13.46;70.24;101028.09;5102774;27;46895;-62
2021/11/13 04:01:56;;;;;;;;;11.00;10.00;;;;;13.44;70.42;101024.59;5102507;27;45157;-62
2021/11/13 04:04:21;;;;;;;;;9.75;9.75;;;;;13.37;70.32;101011.50;5101752;27;45525;-62
2021/11/13 04:06:46;;;;;;;;;10.75;9.75;;;;;13.43;70.52;101025.56;5103086;27;45208;-63
2021/11/13 04:09:12;;;;;;;;;12.25;10.00;;;;;13.42;70.43;101037.19;5100478;27;45221;-62
2021/11/13 04:11:38;;;;;;;;;11.50;11.25;;;;;13.38;70.65;101030.22;5102248;27;45461;-62
2021/11/13 04:14:03;;;;;;;;;11.25;9.75;;;;;13.39;70.39;101028.41;5103158;27;45433;-62
2021/11/13 04:16:29;;;;;;;;;16.00;9.75;;;;;13.41;70.50;101029.22;5097203;27;45434;-62
2021/11/13 04:18:54;;;;;;;;;11.25;9.75;;;;;13.42;70.71;101036.34;5102483;27;45238;-62
2021/11/13 04:21:20;;;;;;;;;11.50;8.00;;;;;13.42;70.66;101036.34;5102349;27;45379;-62
2021/11/13 04:23:45;;;;;;;;;10.25;9.00;;;;;13.39;70.89;101039.13;5102398;27;45439;-63
2021/11/13 04:26:11;;;;;;;;;12.25;9.50;;;;;13.41;70.58;101038.13;5100987;27;45317;-62
2021/11/13 04:28:37;;;;;;;;;11.25;11.25;;;;;13.41;70.82;101039.94;5102508;27;45907;-62
2021/11/13 04:31:02;;;;;;;;;10.75;9.75;;;;;13.39;70.79;101036.44;5088871;27;45331;-62
2021/11/13 04:33:29;;;;;;;;;11.25;8.75;;;;;13.44;70.77;101037.13;5091579;27;45480;-62
2021/11/13 04:38:29;;;;;;;;;9.75;9.00;;;;;13.46;70.62;101029.91;5102025;27;45510;-62
2021/11/13 04:40:54;;;;;;;;;9.50;8.00;;;;;13.43;70.58;101025.56;5101432;27;45649;-62
2021/11/13 04:43:20;;;;;;;;;10.00;8.00;;;;;13.44;70.81;101032.63;5101074;27;45251;-62
2021/11/13 04:45:45;;;;;;;;;10.00;10.00;;;;;13.45;70.73;101038.91;5102137;27;45433;-62
2021/11/13 04:48:11;;;;;;;;;9.00;8.00;;;;;13.46;70.56;101037.94;5101875;27;45569;-62
2021/11/13 04:50:36;;;;;;;;;8.00;7.50;;;;;13.44;70.76;101034.47;5101697;27;45469;-62
2021/11/13 04:53:03;;;;;;;;;9.50;9.00;;;;;13.44;70.85;101026.41;5102003;27;45301;-62
2021/11/13 04:55:29;;;;;;;;;9.00;9.00;;;;;13.40;70.65;101022.97;5095422;27;45417;-62
2021/11/13 04:57:54;;;;;;;;;8.00;7.50;;;;;13.45;70.79;101030.84;5100636;27;46991;-63
2021/11/13 05:00:23;;;;;;;;;11.75;8.75;;;;;13.45;70.71;101023.69;5101822;27;45392;-62
2021/11/13 05:02:49;;;;;;;;;14.00;7.25;;;;;13.44;70.80;101021.91;5101787;27;45430;-62
2021/11/13 05:05:14;;;;;;;;;9.25;8.50;;;;;13.47;71.09;101034.34;5100014;27;45424;-62
2021/11/13 05:07:40;;;;;;;;;6.00;6.00;;;;;13.47;70.95;101023.63;5101653;27;45320;-63
2021/11/13 05:10:06;;;;;;;;;14.00;10.00;;;;;13.47;70.74;101031.66;5101330;27;45312;-62
2021/11/13 05:12:32;;;;;;;;;8.00;7.25;;;;;13.44;70.94;101023.72;5101884;27;45426;-63
2021/11/13 05:14:57;;;;;;;;;7.00;7.00;;;;;13.47;70.86;101032.53;5101413;27;45242;-63
2021/11/13 05:17:23;;;;;;;;;10.25;8.50;;;;;13.47;70.74;101035.22;5101475;27;45270;-62
2021/11/13 05:19:48;;;;;;;;;5.25;5.25;;;;;13.46;71.11;101029.91;5100196;27;45237;-62
2021/11/13 05:22:14;;;;;;;;;4.25;4.25;;;;;13.46;71.08;101038.81;5101764;27;45209;-62
2021/11/13 05:24:39;;;;;;;;;8.00;5.50;;;;;13.46;71.04;101037.94;5100846;27;45514;-63
2021/11/13 05:27:05;;;;;;;;;5.00;5.00;;;;;13.44;71.17;101032.63;5101480;27;46500;-63
2021/11/13 05:29:30;;;;;;;;;6.00;4.50;;;;;13.45;70.96;101033.53;5101412;27;45391;-62
2021/11/13 05:31:56;;;;;;;;;9.50;7.00;;;;;13.48;71.02;101039.66;5101492;27;45732;-62
2021/11/13 05:34:21;;;;;;;;;7.75;6.00;;;;;13.48;70.82;101038.75;5100326;27;45431;-63
2021/11/13 05:36:48;;;;;;;;;6.75;5.50;;;;;13.53;70.92;101039.44;5100975;27;46263;-64
2021/11/13 05:39:14;;;;;;;;;6.75;5.50;;;;;13.53;71.09;101040.34;5101273;27;45448;-65
2021/11/13 05:41:40;;;;;;;;;9.75;8.00;;;;;13.54;70.91;101043.88;5101027;27;45278;-65
2021/11/13 05:44:05;;;;;;;;;8.00;6.75;;;;;13.53;70.99;101044.81;5101103;27;45507;-65
2021/11/13 05:46:31;;;;;;;;;5.50;5.00;;;;;13.53;70.59;101045.69;5101052;27;46274;-65
2021/11/13 05:48:56;;;;;;;;;6.00;5.00;;;;;13.55;70.92;101040.28;5099002;27;45293;-65
2021/11/13 05:51:21;;;;;;;;;5.75;5.00;;;;;13.55;70.78;101051.00;5101094;27;45439;-65
2021/11/13 05:53:47;;;;;;;;;7.75;4.75;;;;;13.55;70.48;101048.31;5100684;27;45548;-65
2021/11/13 05:56:12;;;;;;;;;5.25;4.50;;;;;13.55;70.81;101040.28;5100812;27;46277;-65
2021/11/13 05:58:38;;;;;;;;;8.75;6.75;;;;;13.59;70.69;101044.56;5100934;27;45360;-65
2021/11/13 06:01:03;;;;;;;;;5.00;5.00;;;;;13.59;70.60;101035.66;5101121;27;45317;-65
2021/11/13 06:03:29;;;;;;;;;5.75;3.00;;;;;13.57;70.70;101034.84;5099604;27;45488;-65
2021/11/13 06:05:55;;;;;;;;;3.00;3.00;;;;;13.58;70.43;101047.31;5100828;27;46120;-65
2021/11/13 06:08:20;;;;;;;;;5.50;5.00;;;;;13.57;70.81;101041.09;5099563;27;45423;-65
2021/11/13 06:10:45;;;;;;;;;4.75;4.00;;;;;13.59;70.74;101044.56;5100112;27;45482;-65
2021/11/13 06:13:11;;;;;;;;;6.25;5.00;;;;;13.60;70.29;101049.00;5100548;27;45474;-65
2021/11/13 06:15:36;;;;;;;;;5.50;5.50;;;;;13.58;70.51;101045.53;5099685;27;45416;-63
2021/11/13 06:18:02;;;;;;;;;7.50;3.25;;;;;13.61;70.49;101042.69;5100848;27;45479;-63
2021/11/13 06:20:27;;;;;;;;;7.50;6.00;;;;;13.58;70.70;101033.91;5100804;27;45465;-63
2021/11/13 06:22:54;;;;;;;;;5.00;3.50;;;;;13.61;70.48;101039.16;5100383;27;45408;-63
2021/11/13 06:25:19;;;;;;;;;4.50;4.00;;;;;13.60;70.55;101040.97;5100339;27;46381;-62
2021/11/13 06:27:45;;;;;;;;;3.75;2.00;;;;;13.61;70.51;101048.06;5100614;27;45390;-63
2021/11/13 06:30:12;;;;;;;;;4.25;4.25;;;;;13.64;70.26;101052.44;5100526;27;45451;-63
2021/11/13 06:32:39;;;;;;;;;4.50;4.00;;;;;13.64;70.50;101058.66;5100347;27;45204;-63
2021/11/13 06:35:07;;;;;;;;;3.75;3.75;;;;;13.64;70.43;101050.63;5097869;27;46323;-63
2021/11/13 06:37:33;;;;;;;;;3.25;3.25;;;;;13.65;70.34;101057.75;5099548;27;45644;-63
2021/11/13 06:39:58;;;;;;;;;3.75;3.75;;;;;13.66;70.10;101061.28;5099885;27;45321;-63
2021/11/13 06:42:24;;;;;;;;;4.50;3.25;;;;;13.68;70.34;101070.13;5100335;27;45267;-63
2021/11/13 06:44:50;;;;;;;;;4.50;3.00;;;;;13.66;70.45;101058.59;5100174;27;45237;-63
2021/11/13 06:47:15;;;;;;;;;1.00;1.00;;;;;13.64;70.61;101069.41;5098986;27;45237;-63
2021/11/13 06:49:41;;;;;;;;;5.00;2.00;;;;;13.64;70.42;101071.22;5098571;27;45472;-63
2021/11/13 06:52:07;;;;;;;;;1.75;1.75;;;;;13.64;70.48;101072.06;5100139;27;45163;-63
2021/11/13 06:54:32;;;;;;;;;2.75;1.75;;;;;13.66;70.40;101075.56;5099672;27;45419;-63
2021/11/13 06:56:59;;;;;;;;;1.25;1.25;;;;;13.65;70.47;101075.66;5098724;27;45701;-63
2021/11/13 06:59:24;;;;;;;;;1.00;1.00;;;;;13.63;70.58;101078.41;5100308;27;45197;-63
2021/11/13 07:01:49;;;;;;;;;3.25;2.00;;;;;13.64;70.54;101077.44;5100048;27;45604;-63
2021/11/13 07:04:15;;;;;;;;;2.75;1.00;;;;;13.61;70.83;101080.25;5098566;27;45556;-63
2021/11/13 07:06:40;;;;;;;;;4.00;2.00;;;;;13.61;70.94;101079.38;5099857;27;45361;-63
2021/11/13 07:09:06;;;;;;;;;2.50;1.50;;;;;13.66;70.91;101091.66;5100062;27;45320;-63
2021/11/13 07:11:31;;;;;;;;;1.50;1.50;;;;;13.66;70.86;101088.97;5098640;27;45613;-63
2021/11/13 07:13:56;;;;;;;;;2.00;2.00;;;;;13.59;70.85;101076.75;5099832;27;46084;-63
2021/11/13 07:16:22;;;;;;;;;3.00;3.00;;;;;13.67;70.75;101096.09;5098451;27;45384;-63
2021/11/13 07:18:47;;;;;;;;;2.50;2.00;;;;;13.64;70.83;101093.53;5100064;27;45822;-63
2021/11/13 07:21:13;;;;;;;;;2.00;1.00;;;;;13.63;71.18;101099.84;5099827;27;45445;-63
2021/11/13 07:23:38;;;;;;;;;1.00;1.00;;;;;13.63;70.86;101105.22;5102461;27;45396;-63
2021/11/13 07:26:06;;;;;;;;;1.00;0.00;;;;;13.62;71.06;101110.66;5103021;27;45310;-63
2021/11/13 07:28:36;;;;;;;;;0.75;0.75;;;;;13.61;71.27;101119.63;5103504;27;45273;-63
2021/11/13 07:31:03;;;;;;;;;1.00;1.00;;;;;13.61;71.20;101120.47;5098575;27;45341;-63
2021/11/13 07:33:28;;;;;;;;;1.50;1.00;;;;;13.59;71.22;101122.34;5102928;27;46159;-63
2021/11/13 07:35:54;;;;;;;;;1.50;1.50;;;;;13.60;71.28;101117.84;5103254;27;45416;-63
2021/11/13 07:38:19;;;;;;;;;1.75;1.75;;;;;13.62;71.38;101118.69;5103475;27;45360;-63
2021/11/13 07:40:44;;;;;;;;;3.00;1.00;;;;;13.62;71.24;101126.75;5102750;27;45439;-63
2021/11/13 07:43:10;;;;;;;;;1.00;1.00;;;;;13.65;71.37;101138.22;5101549;27;47545;-63
2021/11/13 07:45:36;;;;;;;;;2.00;1.00;;;;;13.62;71.54;101124.91;5101962;27;45373;-63
2021/11/13 07:48:04;;;;;;;;;2.00;1.00;;;;;13.66;71.47;101134.59;5103162;27;45315;-63
2021/11/13 07:50:30;;;;;;;;;1.00;1.00;;;;;13.61;71.69;101136.56;5101380;27;45442;-63
2021/11/13 07:52:56;;;;;;;;;0.00;0.00;;;;;13.61;71.53;101136.56;5103089;27;45502;-63
2021/11/13 07:55:21;;;;;;;;;1.75;1.75;;;;;13.63;71.74;101142.78;5102177;27;45589;-63
2021/11/13 07:57:47;;;;;;;;;1.00;1.00;;;;;13.63;71.52;101140.09;5103170;27;45350;-63
2021/11/13 08:00:16;;;;;;;;;2.50;0.00;;;;;13.65;71.74;101140.91;5102849;27;45397;-63
2021/11/13 08:02:41;;;;;;;;;0.00;0.00;;;;;13.67;71.54;101144.38;5102813;27;46243;-63
2021/11/13 08:05:09;;;;;;;;;0.00;0.00;;;;;13.66;71.75;101144.44;5102738;27;45289;-63
2021/11/13 08:07:34;;;;;;;;;0.00;0.00;;;;;13.67;71.79;101147.06;5103152;27;45358;-63
2021/11/13 08:09:59;;;;;;;;;1.25;1.25;;;;;13.67;71.53;101151.56;5101850;27;45383;-63
2021/11/13 08:12:25;;;;;;;;;3.00;2.00;;;;;13.69;71.78;101155.94;5102611;27;46105;-63
2021/11/13 08:14:50;;;;;;;;;1.50;1.50;;;;;13.67;71.89;101149.75;5101616;27;45455;-63
2021/11/13 08:17:15;;;;;;;;;1.50;1.00;;;;;13.70;71.59;101155.00;5101980;27;45382;-63
2021/11/13 08:19:41;;;;;;;;;1.00;1.00;;;;;13.73;71.80;101155.81;5101495;27;45293;-63
2021/11/13 08:22:06;;;;;;;;;1.00;1.00;;;;;13.76;71.83;101161.06;5102520;27;46294;-63
2021/11/13 08:24:32;;;;;;;;;1.00;1.00;;;;;13.75;71.74;101149.47;5101774;27;45361;-63
2021/11/13 08:26:57;;;;;;;;;2.75;1.00;;;;;13.77;71.71;101163.69;5102578;27;45383;-63
2021/11/13 08:29:23;;;;;;;;;1.75;1.00;;;;;13.78;71.75;101161.88;5102213;27;45262;-63
2021/11/13 08:31:48;;;;;;;;;1.00;1.00;;;;;13.76;71.86;101153.03;5102297;27;46097;-63
2021/11/13 08:34:15;;;;;;;;;1.00;1.00;;;;;13.78;71.68;101154.72;5100240;27;45543;-63
2021/11/13 08:36:40;;;;;;;;;1.00;1.00;;;;;13.80;72.02;101154.63;5102570;27;45353;-63
2021/11/13 08:39:07;;;;;;;;;1.00;1.00;;;;;13.81;71.85;101148.34;5102185;27;45612;-63
2021/11/13 08:41:32;;;;;;;;;2.75;1.00;;;;;13.82;71.55;101163.53;5101895;27;45504;-63
2021/11/13 08:43:58;;;;;;;;;1.25;1.00;;;;;13.82;71.72;101156.34;5101704;27;45219;-63
2021/11/13 08:46:23;;;;;;;;;0.75;0.00;;;;;13.84;71.71;101159.81;5102294;27;45438;-64
2021/11/13 08:48:49;;;;;;;;;1.25;1.25;;;;;13.78;71.91;101148.47;5100437;27;45927;-63
2021/11/13 08:51:14;;;;;;;;;2.50;1.00;;;;;13.82;71.66;101160.84;5100823;27;45992;-62
2021/11/13 08:53:40;;;;;;;;;1.00;1.00;;;;;13.87;71.42;101158.84;5099027;27;45610;-61
2021/11/13 08:56:05;;;;;;;;;1.00;1.00;;;;;13.82;71.70;101153.66;5095566;27;45498;-62
2021/11/13 08:58:31;;;;;;;;;1.50;1.50;;;;;13.89;71.50;101167.69;5091693;27;45601;-62
2021/11/13 09:01:01;;;;;;;;;2.00;2.00;;;;;13.90;71.89;101167.66;5097781;27;47696;-62
2021/11/13 09:03:31;;;;;;;;;2.00;0.75;;;;;13.92;71.67;101169.41;5100011;27;45701;-62
2021/11/13 09:05:58;;;;;;;;;4.75;0.25;;;;;13.92;71.67;101169.41;5101716;27;45426;-62
2021/11/13 09:08:25;;;;;;;;;2.00;2.00;;;;;13.89;71.75;101170.38;5097809;27;45456;-62
2021/11/13 09:10:51;;;;;;;;;1.00;1.00;;;;;13.90;71.70;101170.31;5088681;27;47442;-61
2021/11/13 09:13:19;;;;;;;;;2.00;0.75;;;;;13.95;71.47;101169.25;5100347;27;45914;-62
2021/11/13 09:15:45;;;;;;;;;1.50;1.00;;;;;13.95;71.75;101167.47;5102101;27;45343;-61
2021/11/13 09:18:11;;;;;;;;;0.75;0.75;;;;;13.88;71.45;101141.78;5099605;27;45320;-61
2021/11/13 09:20:40;;;;;;;;;1.00;1.00;;;;;13.98;71.22;101167.34;5101507;27;45361;-62
2021/11/13 09:23:06;;;;;;;;;1.00;1.00;;;;;13.97;71.50;101160.22;5101495;27;45193;-62
2021/11/13 09:25:32;;;;;;;;;1.00;1.00;;;;;13.94;71.26;101157.66;5101601;27;45561;-62
2021/11/13 09:27:59;;;;;;;;;0.00;0.00;;;;;14.01;71.56;101167.19;5100611;27;45522;-61
2021/11/13 09:30:28;;;;;;;;;0.75;0.75;;;;;14.01;71.41;101167.19;5101313;27;45565;-61
2021/11/13 09:32:55;;;;;;;;;1.00;1.00;;;;;14.02;71.40;101165.41;5101224;27;45326;-61
2021/11/13 09:35:21;;;;;;;;;1.75;1.75;;;;;14.04;71.35;101163.53;5101747;27;45404;-61
2021/11/13 09:37:48;;;;;;;;;3.00;1.75;;;;;14.05;71.35;101166.16;5101351;27;45467;-61
2021/11/13 09:40:19;;;;;;;;;1.75;1.75;;;;;14.08;71.08;101167.84;5100903;27;46074;-62
2021/11/13 09:42:50;;;;;;;;;2.00;2.00;;;;;14.06;71.21;101175.06;5101417;27;45311;-61
2021/11/13 09:45:16;;;;;;;;;1.50;1.00;;;;;14.04;70.96;101168.91;5100887;27;45316;-61
2021/11/13 09:47:47;;;;;;;;;2.75;1.00;;;;;14.07;71.00;101177.69;5100882;27;45476;-62
2021/11/13 09:50:13;;;;;;;;;3.00;2.00;;;;;14.08;71.23;101173.19;5099881;27;46148;-62
2021/11/13 09:52:40;;;;;;;;;3.00;1.00;;;;;14.07;71.31;101175.03;5101062;27;45338;-62
2021/11/13 09:55:08;;;;;;;;;1.75;1.75;;;;;14.07;71.14;101171.47;5101070;27;45357;-62
2021/11/13 09:57:36;;;;;;;;;3.75;2.50;;;;;14.01;71.30;101169.88;5100988;27;45374;-62
2021/11/13 10:00:03;;;;;;;;;2.25;2.00;;;;;14.12;70.98;101184.72;5100963;27;46153;-62
2021/11/13 10:02:29;;;;;;;;;4.00;4.00;;;;;14.09;71.58;101178.50;5099617;27;45360;-62
2021/11/13 10:04:54;;;;;;;;;4.00;2.50;;;;;14.14;71.37;101193.56;5101237;27;45217;-62
2021/11/13 10:07:20;;;;;;;;;2.75;2.50;;;;;14.14;71.20;101191.75;5099179;27;45465;-62
2021/11/13 10:09:48;;;;;;;;;2.25;2.25;;;;;14.15;71.20;101193.53;5095337;27;47029;-62
2021/11/13 10:12:14;;;;;;;;;4.75;4.00;;;;;14.18;70.94;101195.19;5100041;27;45298;-62
2021/11/13 10:14:41;;;;;;;;;4.25;4.00;;;;;14.15;71.25;101184.56;5094598;27;45651;-61
2021/11/13 10:17:22;;;;;;;;;3.00;3.00;;;;;14.19;71.22;101202.31;5092119;27;45589;-62
2021/11/13 10:19:48;;;;;;;;;4.00;4.00;;;;;14.20;71.08;101196.00;5099118;27;45481;-62
2021/11/13 10:22:14;;;;;;;;;3.00;3.00;;;;;14.21;70.97;101200.44;5099601;27;45686;-63
2021/11/13 10:24:45;;;;;;;;;4.50;3.50;;;;;14.20;70.95;101190.63;5099474;27;45711;-66
2021/11/13 10:27:11;;;;;;;;;3.75;3.50;;;;;14.19;70.54;101191.56;5092665;27;45767;-65
2021/11/13 10:29:37;;;;;;;;;4.00;4.00;;;;;14.20;70.81;101198.69;5098836;27;46099;-62
2021/11/13 10:32:07;;;;;;;;;4.00;4.00;;;;;14.19;71.02;101196.94;5099091;27;45281;-63
2021/11/13 10:34:38;;;;;;;;;4.25;4.25;;;;;14.21;70.92;101190.56;5098110;27;45390;-63
2021/11/13 10:37:10;;;;;;;;;5.00;5.00;;;;;14.23;71.05;101187.81;5099464;27;45384;-63
2021/11/13 10:39:41;;;;;;;;;4.00;4.00;;;;;14.23;70.92;101186.03;5099021;27;45446;-63
2021/11/13 10:42:11;;;;;;;;;6.75;4.00;;;;;14.20;70.74;101180.78;5098942;27;45554;-63
2021/11/13 10:44:50;;;;;;;;;5.25;4.75;;;;;14.23;70.48;101180.66;5099344;27;45434;-63
2021/11/13 10:47:19;;;;;;;;;6.75;5.50;;;;;14.30;70.63;101183.06;5099053;27;45290;-63
2021/11/13 10:49:47;;;;;;;;;4.00;3.25;;;;;14.27;70.60;101174.22;5096543;27;46379;-62
2021/11/13 10:52:14;;;;;;;;;4.75;3.50;;;;;14.31;70.30;101183.00;5092773;27;45517;-62
2021/11/13 10:54:48;;;;;;;;;7.00;7.00;;;;;14.32;70.48;101184.78;5097667;27;45411;-62
2021/11/13 10:57:24;;;;;;;;;5.75;5.50;;;;;14.33;70.25;101177.59;5100736;27;45390;-62
2021/11/13 10:59:49;;;;;;;;;5.75;5.50;;;;;14.31;70.75;101180.31;5101169;27;46143;-62
2021/11/13 11:02:17;;;;;;;;;6.25;5.50;;;;;14.34;70.51;101188.25;5102771;27;45399;-62
2021/11/13 11:04:46;;;;;;;;;8.75;6.75;;;;;14.36;70.23;101191.75;5102767;27;45276;-62
2021/11/13 11:07:15;;;;;;;;;6.75;6.75;;;;;14.35;70.30;101192.72;5101873;27;45435;-62
2021/11/13 11:09:43;;;;;;;;;9.50;5.50;;;;;14.36;70.51;101185.50;5102149;27;45408;-63
2021/11/13 11:12:12;;;;;;;;;8.00;6.50;;;;;14.35;70.56;101176.59;5102307;27;45353;-63
2021/11/13 11:14:40;;;;;;;;;6.25;5.25;;;;;14.39;70.03;101175.53;5102301;27;45438;-61
2021/11/13 11:17:09;;;;;;;;;6.50;5.00;;;;;14.36;70.32;101166.72;5101495;27;45402;-64
2021/11/13 11:19:37;;;;;;;;;9.00;5.75;;;;;14.37;70.45;101174.72;5102079;27;45458;-64